createdAt,value
2022-10-18T00:01:02.572Z,3.65
2022-10-18T00:03:30.381Z,3.39
2022-10-18T00:05:57.495Z,3.25
2022-10-18T00:08:25.010Z,3.39
2022-10-18T00:10:52.498Z,3.40
2022-10-18T00:13:20.253Z,3.15
2022-10-18T00:15:58.560Z,3.30
2022-10-18T00:18:26.540Z,3.44
2022-10-18T00:21:13.651Z,3.38
2022-10-18T00:23:41.214Z,3.29
2022-10-18T00:26:11.827Z,3.15
2022-10-18T00:28:39.563Z,3.22
2022-10-18T00:31:13.215Z,2.92
2022-10-18T00:33:40.733Z,2.71
2022-10-18T00:36:08.576Z,2.64
2022-10-18T00:38:35.976Z,2.75
2022-10-18T00:41:03.652Z,2.92
2022-10-18T00:43:31.053Z,3.20
2022-10-18T00:45:58.148Z,3.27
2022-10-18T00:48:25.295Z,3.14
2022-10-18T00:50:53.502Z,2.89
2022-10-18T00:53:22.823Z,2.95
2022-10-18T00:55:49.981Z,2.96
2022-10-18T00:58:18.256Z,3.11
2022-10-18T01:00:45.379Z,2.94
2022-10-18T01:03:12.439Z,3.00
2022-10-18T01:05:42.708Z,2.80
2022-10-18T01:08:28.548Z,2.53
2022-10-18T01:11:07.662Z,2.72
2022-10-18T01:13:53.707Z,2.46
2022-10-18T01:16:28.699Z,2.82
2022-10-18T01:19:02.933Z,2.94
2022-10-18T01:21:37.900Z,2.83
2022-10-18T01:24:07.981Z,3.00
2022-10-18T01:26:38.148Z,3.02
2022-10-18T01:29:17.452Z,2.82
2022-10-18T01:31:44.856Z,2.84
2022-10-18T01:34:14.120Z,2.86
2022-10-18T01:36:43.653Z,2.64
2022-10-18T01:39:21.652Z,2.37
2022-10-18T01:41:50.037Z,2.60
2022-10-18T01:44:28.176Z,2.55
2022-10-18T01:46:56.519Z,2.62
2022-10-18T01:49:24.540Z,2.33
2022-10-18T01:51:51.853Z,2.52
2022-10-18T01:54:30.363Z,2.69
2022-10-18T01:57:03.996Z,2.77
2022-10-18T01:59:50.079Z,2.86
2022-10-18T02:02:30.250Z,2.40
2022-10-18T02:05:07.256Z,2.51
2022-10-18T02:07:37.955Z,2.38
2022-10-18T02:10:11.021Z,2.32
2022-10-18T02:12:40.314Z,2.20
2022-10-18T02:15:10.037Z,2.37
2022-10-18T02:17:37.987Z,2.44
2022-10-18T02:20:06.500Z,2.27
2022-10-18T02:22:35.374Z,2.27
2022-10-18T02:25:07.158Z,2.23
2022-10-18T02:27:34.661Z,1.94
2022-10-18T02:30:02.005Z,2.16
2022-10-18T02:32:34.761Z,1.69
2022-10-18T02:35:08.052Z,1.91
2022-10-18T02:37:37.674Z,2.12
2022-10-18T02:40:06.537Z,1.72
2022-10-18T02:42:35.155Z,1.94
2022-10-18T02:45:02.390Z,2.00
2022-10-18T02:47:30.150Z,2.17
2022-10-18T02:49:57.494Z,2.08
2022-10-18T02:52:24.746Z,1.83
2022-10-18T02:54:52.337Z,1.83
2022-10-18T02:57:19.394Z,1.59
2022-10-18T02:59:46.569Z,1.68
2022-10-18T03:02:14.206Z,1.87
2022-10-18T03:04:41.273Z,2.14
2022-10-18T03:07:08.426Z,2.18
2022-10-18T03:09:35.805Z,1.98
2022-10-18T03:12:02.929Z,2.15
2022-10-18T03:14:30.058Z,1.95
2022-10-18T03:16:57.634Z,1.96
2022-10-18T03:19:24.923Z,1.98
2022-10-18T03:21:52.015Z,2.00
2022-10-18T03:24:19.454Z,2.20
2022-10-18T03:26:46.597Z,2.03
2022-10-18T03:29:13.895Z,2.11
2022-10-18T03:31:41.313Z,2.21
2022-10-18T03:34:08.801Z,2.35
2022-10-18T03:36:35.857Z,2.39
2022-10-18T03:39:03.374Z,2.30
2022-10-18T03:41:30.488Z,2.34
2022-10-18T03:43:57.565Z,2.26
2022-10-18T03:46:25.023Z,2.21
2022-10-18T03:48:52.168Z,2.02
2022-10-18T03:51:19.246Z,1.84
2022-10-18T03:53:46.756Z,1.86
2022-10-18T03:56:13.828Z,1.79
2022-10-18T03:58:40.912Z,1.80
2022-10-18T04:01:08.360Z,2.04
2022-10-18T04:03:35.748Z,2.00
2022-10-18T04:06:03.823Z,2.19
2022-10-18T04:08:31.024Z,1.81
2022-10-18T04:10:58.556Z,1.91
2022-10-18T04:13:25.627Z,2.16
2022-10-18T04:15:52.702Z,2.18
2022-10-18T04:18:20.093Z,2.22
2022-10-18T04:20:47.354Z,2.22
2022-10-18T04:23:14.405Z,2.27
2022-10-18T04:25:44.766Z,2.20
2022-10-18T04:28:11.928Z,2.14
2022-10-18T04:30:39.028Z,2.13
2022-10-18T04:33:06.475Z,2.12
2022-10-18T04:35:33.557Z,2.31
2022-10-18T04:38:00.721Z,2.05
2022-10-18T04:40:28.186Z,2.16
2022-10-18T04:42:55.846Z,2.04
2022-10-18T04:45:22.875Z,2.16
2022-10-18T04:47:50.255Z,2.17
2022-10-18T04:50:17.478Z,2.05
2022-10-18T04:52:44.591Z,1.80
2022-10-18T04:55:12.045Z,1.95
2022-10-18T04:57:39.196Z,2.07
2022-10-18T05:00:06.721Z,2.22
2022-10-18T05:02:34.447Z,2.21
2022-10-18T05:05:01.898Z,2.25
2022-10-18T05:07:28.986Z,2.26
2022-10-18T05:09:59.106Z,2.11
2022-10-18T05:12:26.194Z,1.52
2022-10-18T05:14:53.325Z,1.71
2022-10-18T05:17:20.936Z,1.92
2022-10-18T05:19:48.073Z,1.75
2022-10-18T05:22:15.413Z,2.05
2022-10-18T05:24:42.863Z,2.23
2022-10-18T05:27:11.239Z,2.39
2022-10-18T05:29:38.352Z,1.79
2022-10-18T05:32:05.785Z,1.55
2022-10-18T05:34:33.225Z,1.47
2022-10-18T05:37:00.733Z,1.73
2022-10-18T05:39:28.152Z,2.18
2022-10-18T05:41:55.257Z,2.22
2022-10-18T05:44:22.399Z,2.41
2022-10-18T05:46:49.837Z,2.58
2022-10-18T05:49:16.923Z,2.54
2022-10-18T05:51:43.992Z,2.80
2022-10-18T05:54:12.121Z,3.05
2022-10-18T05:59:12.464Z,3.12
2022-10-18T06:01:40.183Z,3.36
2022-10-18T06:04:07.678Z,3.40
2022-10-18T06:06:34.779Z,3.40
2022-10-18T06:09:03.520Z,3.27
2022-10-18T06:11:31.347Z,3.32
2022-10-18T06:13:58.400Z,3.51
2022-10-18T06:16:31.276Z,3.69
2022-10-18T06:19:00.228Z,3.80
2022-10-18T06:21:27.704Z,4.00
2022-10-18T06:23:55.987Z,4.09
2022-10-18T06:26:23.802Z,3.82
2022-10-18T06:28:51.542Z,3.42
2022-10-18T06:31:18.981Z,3.70
2022-10-18T06:33:46.360Z,4.09
2022-10-18T06:36:18.225Z,4.25
2022-10-18T06:38:45.553Z,4.19
2022-10-18T06:41:13.053Z,4.49
2022-10-18T06:43:40.354Z,4.54
2022-10-18T06:46:08.468Z,4.61
2022-10-18T06:48:36.610Z,4.46
2022-10-18T06:51:05.437Z,4.63
2022-10-18T06:53:33.526Z,4.92
2022-10-18T06:56:01.829Z,5.34
2022-10-18T06:58:29.554Z,5.56
2022-10-18T07:00:57.023Z,6.07
2022-10-18T07:03:24.850Z,6.43
2022-10-18T07:05:52.259Z,6.53
2022-10-18T07:08:19.367Z,6.51
2022-10-18T07:10:55.878Z,6.83
2022-10-18T07:13:38.338Z,6.85
2022-10-18T07:16:07.320Z,6.93
2022-10-18T07:18:34.866Z,7.38
2022-10-18T07:21:03.281Z,7.71
2022-10-18T07:23:32.558Z,8.04
2022-10-18T07:26:00.016Z,8.15
2022-10-18T07:28:27.231Z,8.36
2022-10-18T07:30:54.766Z,8.49
2022-10-18T07:33:21.879Z,8.64
2022-10-18T07:35:49.004Z,8.96
2022-10-18T07:38:16.420Z,8.79
2022-10-18T07:40:43.473Z,9.04
2022-10-18T07:43:12.323Z,8.60
2022-10-18T07:45:40.009Z,8.98
2022-10-18T07:48:07.337Z,9.56
2022-10-18T07:50:34.389Z,9.81
2022-10-18T07:53:01.856Z,10.12
2022-10-18T07:55:28.993Z,10.38
2022-10-18T07:57:56.538Z,10.14
2022-10-18T08:00:23.897Z,10.36
2022-10-18T08:02:56.018Z,10.67
2022-10-18T08:05:23.257Z,10.74
2022-10-18T08:07:50.429Z,11.28
2022-10-18T08:10:17.819Z,11.52
2022-10-18T08:12:44.912Z,11.76
2022-10-18T08:15:12.497Z,11.85
2022-10-18T08:17:40.087Z,12.06
2022-10-18T08:20:12.401Z,12.12
2022-10-18T08:22:57.720Z,12.37
2022-10-18T08:25:30.374Z,12.72
2022-10-18T08:27:58.108Z,12.74
2022-10-18T08:30:25.233Z,13.03
2022-10-18T08:32:52.368Z,13.24
2022-10-18T08:35:19.884Z,13.47
2022-10-18T08:37:47.405Z,13.89
2022-10-18T08:40:15.008Z,14.26
2022-10-18T08:43:01.214Z,14.62
2022-10-18T08:45:41.818Z,14.98
2022-10-18T08:48:28.711Z,14.78
2022-10-18T08:50:56.577Z,14.40
2022-10-18T08:53:30.149Z,14.77
2022-10-18T08:56:11.402Z,15.18
2022-10-18T08:58:39.402Z,15.29
2022-10-18T09:01:17.283Z,15.22
2022-10-18T09:03:44.778Z,15.68
2022-10-18T09:06:21.282Z,15.43
2022-10-18T09:09:14.201Z,15.64
2022-10-18T09:11:44.483Z,15.53
2022-10-18T09:14:20.324Z,15.55
2022-10-18T09:16:57.237Z,15.68
2022-10-18T09:19:38.012Z,16.08
2022-10-18T09:22:10.906Z,15.98
2022-10-18T09:24:46.009Z,16.01
2022-10-18T09:27:17.576Z,16.28
2022-10-18T09:30:00.660Z,16.49
2022-10-18T09:32:31.182Z,16.41
2022-10-18T09:35:13.993Z,16.40
2022-10-18T09:37:41.809Z,16.47
2022-10-18T09:40:19.166Z,16.68
2022-10-18T09:43:07.559Z,16.52
2022-10-18T09:45:37.997Z,16.60
2022-10-18T09:48:08.837Z,16.97
2022-10-18T09:50:41.708Z,17.06
2022-10-18T09:53:17.874Z,17.00
2022-10-18T09:55:53.481Z,16.67
2022-10-18T09:58:21.177Z,16.77
2022-10-18T10:00:49.576Z,16.54
2022-10-18T10:03:17.016Z,17.00
2022-10-18T10:05:44.178Z,17.04
2022-10-18T10:08:11.614Z,17.21
2022-10-18T10:10:40.719Z,17.52
2022-10-18T10:13:16.114Z,17.47
2022-10-18T10:15:52.367Z,17.62
2022-10-18T10:18:21.464Z,17.82
2022-10-18T10:20:50.754Z,17.85
2022-10-18T10:23:23.256Z,17.81
2022-10-18T10:26:13.901Z,17.92
2022-10-18T10:28:48.728Z,17.96
2022-10-18T10:31:25.540Z,18.30
2022-10-18T10:34:00.557Z,17.89
2022-10-18T10:36:28.257Z,18.03
2022-10-18T10:39:07.711Z,18.43
2022-10-18T10:41:35.419Z,18.59
2022-10-18T10:44:04.380Z,18.48
2022-10-18T10:46:36.146Z,18.82
2022-10-18T10:49:34.874Z,18.96
2022-10-18T10:52:08.495Z,18.54
2022-10-18T10:54:39.201Z,18.69
2022-10-18T10:57:08.675Z,19.03
2022-10-18T11:02:14.642Z,19.32
2022-10-18T11:04:42.194Z,19.26
2022-10-18T11:07:14.625Z,19.52
2022-10-18T11:09:45.074Z,19.84
2022-10-18T11:12:18.253Z,19.53
2022-10-18T11:14:50.004Z,19.65
2022-10-18T11:17:23.837Z,20.13
2022-10-18T11:20:10.270Z,19.74
2022-10-18T11:22:49.586Z,20.20
2022-10-18T11:25:18.012Z,20.23
2022-10-18T11:27:48.102Z,20.07
2022-10-18T11:30:18.283Z,19.71
2022-10-18T11:32:57.890Z,19.86
2022-10-18T11:35:40.551Z,20.38
2022-10-18T11:38:26.914Z,20.49
2022-10-18T11:41:00.254Z,20.23
2022-10-18T11:44:00.729Z,20.36
2022-10-18T11:46:32.949Z,20.67
2022-10-18T11:49:07.699Z,20.19
2022-10-18T11:52:08.474Z,20.20
2022-10-18T11:54:45.671Z,20.39
2022-10-18T11:57:12.774Z,20.21
2022-10-18T11:59:58.977Z,20.83
2022-10-18T12:02:38.406Z,20.66
2022-10-18T12:05:24.036Z,20.54
2022-10-18T12:08:13.822Z,20.57
2022-10-18T12:10:53.100Z,20.97
2022-10-18T12:13:35.453Z,20.63
2022-10-18T12:16:04.254Z,20.73
2022-10-18T12:18:32.136Z,20.82
2022-10-18T12:20:59.983Z,20.68
2022-10-18T12:23:36.758Z,20.93
2022-10-18T12:26:05.441Z,20.94
2022-10-18T12:28:32.922Z,20.59
2022-10-18T12:31:06.603Z,21.10
2022-10-18T12:33:37.812Z,21.76
2022-10-18T12:36:32.319Z,21.69
2022-10-18T12:39:01.769Z,21.61
2022-10-18T12:41:30.167Z,21.30
2022-10-18T12:44:04.442Z,21.26
2022-10-18T12:46:49.690Z,21.05
2022-10-18T12:49:39.125Z,20.99
2022-10-18T12:52:23.239Z,20.72
2022-10-18T12:55:05.724Z,21.40
2022-10-18T12:57:51.692Z,21.57
2022-10-18T13:02:45.879Z,21.57
2022-10-18T13:05:41.301Z,21.51
2022-10-18T13:08:28.010Z,21.60
2022-10-18T13:11:15.370Z,21.99
2022-10-18T13:14:01.265Z,22.01
2022-10-18T13:16:40.733Z,22.00
2022-10-18T13:19:14.255Z,22.22
2022-10-18T13:22:00.378Z,22.44
2022-10-18T13:24:44.319Z,22.71
2022-10-18T13:27:34.830Z,22.95
2022-10-18T13:30:14.641Z,22.82
2022-10-18T13:32:49.709Z,22.90
2022-10-18T13:35:36.114Z,23.43
2022-10-18T13:38:03.373Z,23.18
2022-10-18T13:40:30.867Z,23.78
2022-10-18T13:42:58.010Z,23.74
2022-10-18T13:45:31.700Z,24.60
2022-10-18T13:48:18.093Z,24.38
2022-10-18T13:50:47.004Z,24.04
2022-10-18T13:53:33.332Z,24.79
2022-10-18T13:56:00.620Z,24.76
2022-10-18T13:58:48.905Z,25.92
2022-10-18T14:01:45.906Z,27.13
2022-10-18T14:04:30.095Z,26.82
2022-10-18T14:07:02.185Z,27.17
2022-10-18T14:09:43.663Z,28.98
2022-10-18T14:12:17.312Z,28.72
2022-10-18T14:15:04.955Z,29.69
2022-10-18T14:17:50.750Z,30.56
2022-10-18T14:20:48.917Z,30.37
2022-10-18T14:23:29.463Z,31.21
2022-10-18T14:26:17.262Z,31.52
2022-10-18T14:29:00.772Z,31.80
2022-10-18T14:31:28.412Z,31.28
2022-10-18T14:33:58.451Z,32.04
2022-10-18T14:36:42.454Z,31.65
2022-10-18T14:39:18.564Z,31.58
2022-10-18T14:41:49.989Z,29.50
2022-10-18T14:44:22.115Z,27.95
2022-10-18T14:46:55.466Z,26.62
2022-10-18T14:49:22.882Z,25.04
2022-10-18T14:51:54.758Z,23.88
2022-10-18T14:54:33.420Z,22.43
2022-10-18T14:57:01.959Z,21.87
2022-10-18T14:59:31.444Z,21.09
2022-10-18T15:01:58.519Z,20.40
2022-10-18T15:04:32.989Z,19.91
2022-10-18T15:07:01.447Z,19.33
2022-10-18T15:09:29.520Z,19.00
2022-10-18T15:11:58.085Z,18.93
2022-10-18T15:14:27.584Z,18.83
2022-10-18T15:16:58.854Z,18.55
2022-10-18T15:19:25.886Z,18.32
2022-10-18T15:25:04.507Z,17.62
2022-10-18T15:27:33.016Z,17.37
2022-10-18T15:30:16.721Z,17.03
2022-10-18T15:33:10.571Z,16.80
2022-10-18T15:35:38.738Z,16.62
2022-10-18T15:38:16.587Z,16.58
2022-10-18T15:40:44.022Z,16.38
2022-10-18T15:43:23.359Z,16.19
2022-10-18T15:46:01.643Z,15.92
2022-10-18T15:48:32.368Z,15.91
2022-10-18T15:51:06.656Z,15.80
2022-10-18T15:53:44.965Z,15.37
2022-10-18T15:56:12.415Z,15.04
2022-10-18T15:58:49.152Z,14.93
2022-10-18T16:01:18.014Z,15.03
2022-10-18T16:03:47.453Z,14.94
2022-10-18T16:06:18.085Z,14.77
2022-10-18T16:08:50.565Z,14.69
2022-10-18T16:11:17.622Z,14.48
2022-10-18T16:13:45.001Z,14.31
2022-10-18T16:16:20.839Z,14.22
2022-10-18T16:18:48.365Z,13.78
2022-10-18T16:21:23.842Z,13.63
2022-10-18T16:23:51.231Z,13.70
2022-10-18T16:26:19.303Z,13.52
2022-10-18T16:28:46.617Z,13.62
2022-10-18T16:33:48.924Z,13.44
2022-10-18T16:36:23.702Z,13.45
2022-10-18T16:38:51.253Z,13.18
2022-10-18T16:41:18.549Z,13.17
2022-10-18T16:43:47.099Z,12.94
2022-10-18T16:46:21.977Z,12.86
2022-10-18T16:48:49.793Z,12.64
2022-10-18T16:51:17.576Z,12.66
2022-10-18T16:53:44.958Z,12.60
2022-10-18T16:56:20.152Z,12.33
2022-10-18T16:58:47.843Z,12.14
2022-10-18T17:01:16.830Z,12.01
2022-10-18T17:03:44.439Z,12.05
2022-10-18T17:06:20.262Z,12.00
2022-10-18T17:08:47.635Z,11.69
2022-10-18T17:11:16.248Z,11.54
2022-10-18T17:13:43.546Z,11.56
2022-10-18T17:16:21.375Z,11.64
2022-10-18T17:18:48.895Z,11.66
2022-10-18T17:21:17.661Z,11.29
2022-10-18T17:23:44.790Z,11.04
2022-10-18T17:26:28.463Z,11.05
2022-10-18T17:28:57.757Z,11.00
2022-10-18T17:31:25.382Z,10.95
2022-10-18T17:33:54.771Z,11.16
2022-10-18T17:36:22.352Z,11.08
2022-10-18T17:38:51.213Z,10.80
2022-10-18T17:41:18.867Z,11.00
2022-10-18T17:43:48.286Z,10.85
2022-10-18T17:46:18.077Z,10.70
2022-10-18T17:48:45.777Z,10.61
2022-10-18T17:51:14.890Z,10.38
2022-10-18T17:53:49.776Z,10.30
2022-10-18T17:58:37.551Z,10.54
2022-10-18T18:01:12.879Z,10.54
2022-10-18T18:03:41.283Z,9.98
2022-10-18T18:06:34.144Z,10.00
2022-10-18T18:09:12.585Z,10.10
2022-10-18T18:11:43.488Z,9.93
2022-10-18T18:14:13.463Z,9.62
2022-10-18T18:16:45.386Z,9.54
2022-10-18T18:19:14.086Z,9.42
2022-10-18T18:21:42.898Z,9.32
2022-10-18T18:24:10.959Z,9.36
2022-10-18T18:26:41.107Z,9.17
2022-10-18T18:29:08.575Z,9.01
2022-10-18T18:31:42.389Z,9.11
2022-10-18T18:34:11.460Z,9.12
2022-10-18T18:36:39.584Z,9.22
2022-10-18T18:39:09.077Z,8.89
2022-10-18T18:41:37.946Z,8.85
2022-10-18T18:44:06.246Z,8.64
2022-10-18T18:46:38.575Z,8.58
2022-10-18T18:49:07.233Z,8.57
2022-10-18T18:51:37.556Z,8.38
2022-10-18T18:54:05.223Z,8.39
2022-10-18T18:56:33.322Z,8.44
2022-10-18T18:59:00.887Z,8.35
2022-10-18T19:01:33.452Z,8.40
2022-10-18T19:04:01.794Z,8.17
2022-10-18T19:06:40.584Z,8.09
2022-10-18T19:09:26.530Z,8.05
2022-10-18T19:11:56.170Z,7.86
2022-10-18T19:14:25.887Z,7.96
2022-10-18T19:16:57.576Z,7.90
2022-10-18T19:19:28.199Z,7.67
2022-10-18T19:22:01.134Z,7.85
2022-10-18T19:24:32.740Z,7.69
2022-10-18T19:27:02.397Z,7.58
2022-10-18T19:29:32.487Z,7.53
2022-10-18T19:32:02.704Z,7.39
2022-10-18T19:34:31.807Z,7.53
2022-10-18T19:36:59.080Z,7.42
2022-10-18T19:39:31.633Z,7.26
2022-10-18T19:42:03.452Z,7.28
2022-10-18T19:44:32.822Z,7.39
2022-10-18T19:47:00.875Z,7.14
2022-10-18T19:49:28.923Z,7.00
2022-10-18T19:51:57.439Z,6.95
2022-10-18T19:54:25.922Z,6.99
2022-10-18T19:56:53.335Z,6.91
2022-10-18T19:59:21.380Z,6.99
2022-10-18T20:01:49.209Z,7.15
2022-10-18T20:04:17.575Z,6.97
2022-10-18T20:06:45.009Z,6.91
2022-10-18T20:09:16.216Z,6.75
2022-10-18T20:11:47.228Z,6.71
2022-10-18T20:14:14.460Z,6.60
2022-10-18T20:16:41.749Z,6.29
2022-10-18T20:19:10.673Z,5.91
2022-10-18T20:21:39.454Z,6.00
2022-10-18T20:24:07.556Z,6.37
2022-10-18T20:26:36.027Z,6.31
2022-10-18T20:29:04.226Z,5.95
2022-10-18T20:31:35.781Z,6.16
2022-10-18T20:34:05.735Z,6.04
2022-10-18T20:36:34.075Z,6.06
2022-10-18T20:39:02.210Z,5.99
2022-10-18T20:41:32.660Z,5.94
2022-10-18T20:44:02.276Z,5.79
2022-10-18T20:46:31.920Z,5.82
2022-10-18T20:48:59.066Z,5.87
2022-10-18T20:51:26.732Z,5.90
2022-10-18T20:53:55.034Z,5.59
2022-10-18T20:56:26.731Z,5.51
2022-10-18T20:58:56.887Z,5.56
2022-10-18T21:01:34.687Z,5.26
2022-10-18T21:04:05.436Z,5.52
2022-10-18T21:06:41.170Z,5.57
2022-10-18T21:09:15.059Z,5.55
2022-10-18T21:11:45.376Z,5.32
2022-10-18T21:14:16.223Z,5.18
2022-10-18T21:16:44.301Z,5.05
2022-10-18T21:19:22.805Z,5.32
2022-10-18T21:21:52.920Z,5.12
2022-10-18T21:24:21.682Z,5.34
2022-10-18T21:26:49.737Z,5.27
2022-10-18T21:29:21.841Z,4.90
2022-10-18T21:31:52.551Z,4.93
2022-10-18T21:34:20.353Z,4.58
2022-10-18T21:36:48.348Z,4.88
2022-10-18T21:39:18.572Z,4.83
2022-10-18T21:41:46.839Z,4.66
2022-10-18T21:44:15.024Z,4.58
2022-10-18T21:46:46.944Z,4.46
2022-10-18T21:49:15.718Z,4.58
2022-10-18T21:51:43.364Z,4.78
2022-10-18T21:54:16.225Z,4.54
2022-10-18T21:56:44.352Z,4.52
2022-10-18T21:59:12.926Z,4.35
2022-10-18T22:01:40.713Z,4.50
2022-10-18T22:04:18.819Z,4.57
2022-10-18T22:06:46.182Z,4.41
2022-10-18T22:09:13.940Z,4.51
2022-10-18T22:11:44.659Z,4.67
2022-10-18T22:14:12.087Z,4.50
2022-10-18T22:16:39.860Z,4.63
2022-10-18T22:19:07.879Z,4.52
2022-10-18T22:21:35.244Z,4.49
2022-10-18T22:24:08.381Z,4.35
2022-10-18T22:26:38.708Z,3.94
2022-10-18T22:29:14.696Z,3.69
2022-10-18T22:31:45.363Z,3.65
2022-10-18T22:34:17.031Z,3.73
2022-10-18T22:36:45.111Z,3.90
2022-10-18T22:39:14.575Z,4.10
2022-10-18T22:41:42.747Z,4.09
2022-10-18T22:44:12.775Z,4.01
2022-10-18T22:46:41.787Z,3.96
2022-10-18T22:49:09.177Z,3.76
2022-10-18T22:51:36.457Z,3.80
2022-10-18T22:54:04.098Z,3.98
2022-10-18T22:56:31.402Z,3.84
2022-10-18T22:58:58.765Z,3.90
2022-10-18T23:01:26.423Z,4.09
2022-10-18T23:03:59.343Z,3.91
2022-10-18T23:06:32.090Z,3.87
2022-10-18T23:09:01.706Z,4.05
2022-10-18T23:11:29.601Z,3.60
2022-10-18T23:13:56.920Z,3.23
2022-10-18T23:16:24.809Z,3.26
2022-10-18T23:18:56.400Z,3.19
2022-10-18T23:21:26.044Z,3.36
2022-10-18T23:23:54.919Z,3.41
2022-10-18T23:26:25.104Z,3.35
2022-10-18T23:28:54.084Z,3.37
2022-10-18T23:31:29.194Z,3.53
2022-10-18T23:34:01.608Z,3.58
2022-10-18T23:36:30.102Z,3.30
2022-10-18T23:38:57.799Z,3.41
2022-10-18T23:41:25.781Z,3.25
2022-10-18T23:43:53.617Z,3.33
2022-10-18T23:46:21.695Z,3.46
2022-10-18T23:48:49.497Z,3.49
2022-10-18T23:51:18.110Z,3.42
2022-10-18T23:53:45.417Z,2.96
2022-10-18T23:56:15.709Z,3.19
2022-10-18T23:58:45.221Z,2.98
